createdAt,value
2018-01-05T00:00:38.264Z,20.10
2018-01-05T00:01:38.184Z,14.70
2018-01-05T00:02:38.106Z,13.00
2018-01-05T00:03:38.027Z,15.60
2018-01-05T00:04:37.948Z,16.60
2018-01-05T00:05:37.871Z,16.70
2018-01-05T00:06:37.793Z,17.70
2018-01-05T00:07:37.715Z,13.90
2018-01-05T00:08:37.636Z,13.50
2018-01-05T00:09:37.559Z,13.70
2018-01-05T00:10:37.480Z,14.50
2018-01-05T00:11:37.401Z,19.30
2018-01-05T00:12:37.323Z,9.10
2018-01-05T00:13:37.245Z,10.60
2018-01-05T00:14:37.167Z,20.20
2018-01-05T00:15:37.087Z,14.60
2018-01-05T00:16:37.009Z,14.20
2018-01-05T00:17:36.936Z,17.00
2018-01-05T00:18:36.852Z,14.50
2018-01-05T00:19:36.773Z,19.30
2018-01-05T00:20:36.695Z,16.60
2018-01-05T00:21:36.617Z,10.20
2018-01-05T00:22:36.538Z,13.40
2018-01-05T00:23:36.458Z,14.60
2018-01-05T00:24:36.380Z,18.20
2018-01-05T00:25:36.302Z,17.10
2018-01-05T00:26:36.223Z,14.20
2018-01-05T00:27:36.145Z,14.60
2018-01-05T00:28:36.064Z,12.00
2018-01-05T00:29:35.986Z,28.70
2018-01-05T00:30:35.915Z,15.70
2018-01-05T00:31:35.828Z,14.50
2018-01-05T00:32:35.751Z,14.20
2018-01-05T00:33:35.672Z,15.80
2018-01-05T00:34:35.593Z,11.60
2018-01-05T00:35:35.514Z,12.30
2018-01-05T00:36:35.436Z,16.80
2018-01-05T00:37:35.357Z,15.80
2018-01-05T00:38:35.278Z,11.50
2018-01-05T00:39:35.199Z,13.10
2018-01-05T00:40:35.120Z,10.70
2018-01-05T00:41:35.043Z,16.00
2018-01-05T00:42:34.965Z,15.40
2018-01-05T00:43:34.883Z,13.90
2018-01-05T00:44:34.806Z,11.40
2018-01-05T00:45:34.727Z,16.60
2018-01-05T00:46:34.649Z,17.80
2018-01-05T00:47:34.570Z,15.50
2018-01-05T00:48:34.491Z,13.30
2018-01-05T00:49:34.416Z,15.40
2018-01-05T00:50:34.334Z,14.50
2018-01-05T00:51:34.255Z,18.00
2018-01-05T00:52:34.176Z,15.10
2018-01-05T00:53:34.098Z,14.70
2018-01-05T00:54:34.020Z,14.10
2018-01-05T00:55:33.940Z,14.20
2018-01-05T00:56:33.862Z,20.10
2018-01-05T00:57:33.785Z,11.40
2018-01-05T00:58:33.707Z,16.80
2018-01-05T00:59:33.627Z,15.00
2018-01-05T01:00:33.548Z,21.90
2018-01-05T01:01:33.470Z,14.60
2018-01-05T01:02:33.392Z,12.90
2018-01-05T01:03:33.313Z,21.00
2018-01-05T01:04:33.234Z,15.00
2018-01-05T01:05:33.155Z,11.20
2018-01-05T01:06:33.077Z,16.70
2018-01-05T01:07:32.998Z,15.40
2018-01-05T01:08:32.919Z,14.60
2018-01-05T01:09:32.843Z,19.00
2018-01-05T01:10:32.763Z,18.70
2018-01-05T01:11:32.684Z,14.60
2018-01-05T01:12:32.605Z,14.60
2018-01-05T01:13:32.526Z,19.30
2018-01-05T01:14:32.448Z,16.10
2018-01-05T01:15:32.369Z,18.00
2018-01-05T01:16:32.290Z,14.80
2018-01-05T01:17:32.212Z,15.70
2018-01-05T01:18:32.133Z,18.20
2018-01-05T01:19:32.054Z,12.40
2018-01-05T01:20:31.976Z,16.80
2018-01-05T01:21:31.897Z,14.30
2018-01-05T01:22:31.819Z,16.00
2018-01-05T01:23:31.740Z,10.30
2018-01-05T01:24:31.660Z,15.50
2018-01-05T01:25:31.583Z,18.10
2018-01-05T01:26:31.504Z,17.80
2018-01-05T01:27:31.424Z,11.60
2018-01-05T01:28:31.346Z,17.10
2018-01-05T01:29:31.267Z,16.70
2018-01-05T01:30:31.189Z,16.90
2018-01-05T01:31:31.112Z,17.90
2018-01-05T01:32:31.080Z,14.60
2018-01-05T01:33:30.953Z,19.60
2018-01-05T01:34:30.874Z,8.30
2018-01-05T01:35:30.795Z,12.80
2018-01-05T01:36:30.716Z,15.30
2018-01-05T01:37:30.637Z,17.40
2018-01-05T01:38:30.559Z,15.50
2018-01-05T01:39:30.479Z,12.20
2018-01-05T01:40:30.405Z,11.30
2018-01-05T01:41:30.322Z,11.40
2018-01-05T01:42:30.243Z,16.50
2018-01-05T01:43:30.163Z,16.20
2018-01-05T01:44:30.085Z,15.60
2018-01-05T01:45:30.007Z,11.00
2018-01-05T01:46:29.928Z,22.00
2018-01-05T01:47:29.848Z,12.80
2018-01-05T01:48:29.769Z,18.60
2018-01-05T01:49:29.691Z,12.20
2018-01-05T01:50:29.612Z,13.30
2018-01-05T01:51:29.533Z,15.40
2018-01-05T01:52:29.454Z,14.70
2018-01-05T01:53:29.375Z,8.50
2018-01-05T01:54:29.297Z,13.70
2018-01-05T01:55:29.217Z,13.20
2018-01-05T01:56:29.138Z,11.30
2018-01-05T01:57:29.060Z,18.90
2018-01-05T01:58:28.982Z,14.40
2018-01-05T01:59:28.902Z,16.90
2018-01-05T02:00:28.824Z,13.90
2018-01-05T02:01:28.744Z,16.40
2018-01-05T02:02:28.666Z,14.70
2018-01-05T02:03:28.587Z,16.50
2018-01-05T02:04:28.509Z,21.40
2018-01-05T02:05:28.430Z,14.10
2018-01-05T02:06:28.352Z,18.40
2018-01-05T02:07:28.272Z,13.10
2018-01-05T02:08:28.194Z,9.60
2018-01-05T02:09:28.115Z,14.60
2018-01-05T02:10:28.037Z,11.80
2018-01-05T02:11:27.959Z,19.10
2018-01-05T02:12:27.879Z,15.20
2018-01-05T02:13:27.802Z,9.60
2018-01-05T02:14:27.725Z,15.30
2018-01-05T02:15:27.643Z,11.10
2018-01-05T02:16:27.565Z,15.70
2018-01-05T02:17:27.486Z,15.30
2018-01-05T02:18:27.409Z,17.30
2018-01-05T02:19:27.328Z,14.10
2018-01-05T02:20:27.250Z,16.80
2018-01-05T02:21:27.170Z,17.90
2018-01-05T02:22:27.093Z,12.00
2018-01-05T02:23:27.013Z,16.70
2018-01-05T02:24:26.936Z,19.30
2018-01-05T02:25:26.856Z,15.60
2018-01-05T02:26:26.778Z,11.00
2018-01-05T02:27:26.698Z,11.80
2018-01-05T02:28:26.619Z,15.80
2018-01-05T02:29:26.542Z,12.80
2018-01-05T02:30:26.463Z,12.60
2018-01-05T02:31:26.384Z,14.80
2018-01-05T02:32:26.305Z,16.50
2018-01-05T02:33:26.227Z,16.00
2018-01-05T02:34:26.149Z,18.30
2018-01-05T02:35:26.069Z,14.60
2018-01-05T02:36:25.990Z,15.50
2018-01-05T02:37:25.918Z,13.50
2018-01-05T02:38:25.835Z,14.40
2018-01-05T02:39:25.755Z,10.10
2018-01-05T02:40:25.676Z,10.80
2018-01-05T02:41:25.596Z,11.90
2018-01-05T02:42:25.518Z,11.30
2018-01-05T02:43:25.439Z,16.70
2018-01-05T02:44:25.360Z,8.60
2018-01-05T02:45:25.281Z,20.00
2018-01-05T02:46:25.204Z,12.40
2018-01-05T02:47:25.123Z,19.50
2018-01-05T02:48:35.311Z,11.90
2018-01-05T02:49:24.968Z,10.40
2018-01-05T02:50:24.887Z,13.10
2018-01-05T02:51:24.808Z,16.10
2018-01-05T02:52:24.728Z,13.80
2018-01-05T02:53:24.651Z,12.30
2018-01-05T02:54:24.572Z,11.70
2018-01-05T02:55:24.492Z,15.20
2018-01-05T02:56:24.413Z,15.60
2018-01-05T02:57:24.337Z,15.20
2018-01-05T02:58:24.257Z,12.60
2018-01-05T02:59:24.179Z,11.00
2018-01-05T03:00:24.100Z,15.50
2018-01-05T03:01:24.020Z,16.20
2018-01-05T03:02:23.942Z,14.70
2018-01-05T03:03:23.862Z,16.50
2018-01-05T03:04:23.786Z,14.70
2018-01-05T03:05:23.712Z,14.00
2018-01-05T03:06:23.629Z,13.70
2018-01-05T03:07:23.550Z,14.70
2018-01-05T03:08:23.470Z,15.30
2018-01-05T03:09:23.392Z,11.10
2018-01-05T03:10:23.314Z,13.00
2018-01-05T03:11:23.234Z,14.10
2018-01-05T03:12:23.156Z,18.40
2018-01-05T03:13:23.081Z,14.00
2018-01-05T03:14:22.999Z,17.90
2018-01-05T03:15:22.925Z,10.50
2018-01-05T03:16:22.842Z,15.90
2018-01-05T03:17:22.766Z,10.30
2018-01-05T03:18:22.685Z,14.50
2018-01-05T03:19:22.608Z,15.30
2018-01-05T03:20:22.528Z,8.50
2018-01-05T03:21:22.452Z,16.20
2018-01-05T03:22:22.371Z,12.90
2018-01-05T03:23:22.291Z,16.70
2018-01-05T03:24:22.213Z,11.20
2018-01-05T03:25:22.134Z,14.30
2018-01-05T03:26:22.057Z,19.10
2018-01-05T03:27:21.978Z,10.10
2018-01-05T03:28:21.899Z,14.10
2018-01-05T03:29:21.821Z,17.10
2018-01-05T03:30:21.744Z,11.60
2018-01-05T03:31:21.665Z,12.00
2018-01-05T03:32:21.585Z,13.00
2018-01-05T03:33:21.507Z,13.30
2018-01-05T03:34:21.429Z,12.90
2018-01-05T03:35:21.350Z,13.10
2018-01-05T03:36:21.274Z,13.10
2018-01-05T03:37:21.194Z,15.70
2018-01-05T03:38:21.116Z,15.70
2018-01-05T03:39:21.036Z,14.20
2018-01-05T03:40:20.958Z,11.00
2018-01-05T03:41:20.880Z,10.70
2018-01-05T03:42:20.801Z,14.90
2018-01-05T03:43:20.722Z,13.20
2018-01-05T03:44:20.644Z,13.60
2018-01-05T03:45:20.566Z,11.50
2018-01-05T03:46:20.487Z,11.80
2018-01-05T03:47:20.408Z,12.10
2018-01-05T03:48:20.329Z,11.40
2018-01-05T03:49:20.256Z,12.30
2018-01-05T03:50:20.174Z,13.80
2018-01-05T03:51:20.095Z,9.20
2018-01-05T03:52:20.017Z,16.90
2018-01-05T03:53:19.939Z,17.90
2018-01-05T03:54:19.862Z,9.10
2018-01-05T03:55:19.782Z,10.50
2018-01-05T03:56:19.704Z,12.30
2018-01-05T03:57:19.626Z,13.90
2018-01-05T03:58:19.547Z,12.80
2018-01-05T03:59:19.469Z,11.60
2018-01-05T04:00:19.391Z,16.20
2018-01-05T04:01:19.313Z,14.00
2018-01-05T04:02:19.235Z,16.40
2018-01-05T04:03:19.156Z,12.60
2018-01-05T04:04:19.079Z,11.50
2018-01-05T04:05:19.000Z,13.30
2018-01-05T04:06:18.922Z,17.00
2018-01-05T04:07:18.844Z,11.90
2018-01-05T04:08:18.766Z,14.30
2018-01-05T04:09:18.689Z,12.90
2018-01-05T04:10:18.610Z,9.00
2018-01-05T04:11:18.532Z,15.60
2018-01-05T04:12:18.454Z,8.80
2018-01-05T04:13:18.375Z,13.30
2018-01-05T04:14:18.299Z,9.60
2018-01-05T04:15:18.221Z,15.60
2018-01-05T04:16:18.141Z,18.20
2018-01-05T04:17:18.063Z,13.90
2018-01-05T04:18:17.986Z,12.60
2018-01-05T04:19:17.907Z,11.40
2018-01-05T04:20:17.829Z,10.60
2018-01-05T04:21:17.752Z,11.60
2018-01-05T04:22:17.674Z,13.30
2018-01-05T04:23:17.599Z,13.60
2018-01-05T04:24:17.517Z,9.90
2018-01-05T04:25:17.438Z,14.30
2018-01-05T04:26:17.361Z,14.60
2018-01-05T04:27:17.282Z,10.70
2018-01-05T04:28:17.205Z,9.10
2018-01-05T04:29:17.128Z,15.00
2018-01-05T04:30:17.049Z,18.50
2018-01-05T04:31:16.970Z,11.00
2018-01-05T04:32:16.893Z,10.90
2018-01-05T04:33:16.816Z,11.30
2018-01-05T04:34:16.738Z,10.30
2018-01-05T04:35:16.659Z,10.70
2018-01-05T04:36:16.581Z,9.50
2018-01-05T04:37:16.506Z,10.90
2018-01-05T04:38:16.426Z,11.80
2018-01-05T04:39:16.348Z,13.40
2018-01-05T04:40:16.270Z,11.30
2018-01-05T04:41:16.193Z,9.90
2018-01-05T04:42:16.114Z,8.70
2018-01-05T04:43:16.036Z,9.20
2018-01-05T04:44:15.958Z,13.70
2018-01-05T04:45:15.881Z,10.70
2018-01-05T04:46:15.803Z,9.20
2018-01-05T04:47:15.725Z,12.80
2018-01-05T04:48:15.647Z,14.90
2018-01-05T04:49:15.569Z,11.10
2018-01-05T04:50:15.491Z,13.90
2018-01-05T04:51:15.413Z,13.10
2018-01-05T04:52:15.335Z,8.50
2018-01-05T04:53:15.264Z,12.10
2018-01-05T04:54:15.185Z,13.10
2018-01-05T04:55:15.100Z,13.70
2018-01-05T04:56:15.024Z,14.50
2018-01-05T04:57:14.945Z,9.40
2018-01-05T04:58:14.868Z,13.40
2018-01-05T04:59:14.790Z,10.70
2018-01-05T05:00:14.712Z,10.30
2018-01-05T05:01:14.634Z,9.10
2018-01-05T05:02:14.557Z,10.00
2018-01-05T05:03:14.478Z,9.30
2018-01-05T05:04:14.400Z,13.20
2018-01-05T05:05:14.322Z,13.50
2018-01-05T05:06:14.245Z,10.30
2018-01-05T05:07:14.166Z,14.40
2018-01-05T05:08:14.089Z,10.00
2018-01-05T05:09:14.013Z,12.10
2018-01-05T05:10:13.933Z,8.90
2018-01-05T05:11:13.855Z,12.00
2018-01-05T05:12:13.777Z,5.90
2018-01-05T05:13:13.700Z,11.80
2018-01-05T05:14:13.622Z,13.20
2018-01-05T05:15:13.549Z,16.30
2018-01-05T05:16:13.468Z,13.10
2018-01-05T05:17:13.389Z,18.20
2018-01-05T05:18:13.312Z,9.20
2018-01-05T05:19:13.233Z,10.30
2018-01-05T05:20:13.208Z,10.00
2018-01-05T05:21:13.078Z,10.40
2018-01-05T05:22:13.001Z,10.90
2018-01-05T05:23:12.922Z,9.60
2018-01-05T05:24:12.846Z,12.70
2018-01-05T05:25:12.767Z,10.20
2018-01-05T05:26:12.689Z,8.60
2018-01-05T05:27:12.611Z,12.60
2018-01-05T05:28:12.535Z,10.30
2018-01-05T05:29:12.456Z,4.30
2018-01-05T05:30:12.379Z,10.20
2018-01-05T05:31:12.300Z,8.70
2018-01-05T05:32:12.222Z,10.10
2018-01-05T05:33:12.147Z,11.20
2018-01-05T05:34:12.067Z,7.30
2018-01-05T05:35:11.988Z,6.80
2018-01-05T05:36:11.912Z,3.60
2018-01-05T05:37:11.833Z,7.50
2018-01-05T05:38:11.755Z,11.00
2018-01-05T05:39:11.677Z,11.70
2018-01-05T05:40:11.599Z,13.20
2018-01-05T05:41:11.523Z,9.50
2018-01-05T05:42:11.444Z,12.30
2018-01-05T05:43:11.365Z,7.70
2018-01-05T05:44:11.288Z,5.10
2018-01-05T05:45:11.213Z,6.50
2018-01-05T05:46:11.133Z,11.10
2018-01-05T05:47:11.054Z,9.00
2018-01-05T05:48:10.975Z,11.10
2018-01-05T05:49:10.900Z,10.10
2018-01-05T05:50:10.820Z,13.50
2018-01-05T05:51:10.743Z,9.30
2018-01-05T05:52:10.665Z,12.20
2018-01-05T05:53:10.587Z,7.30
2018-01-05T05:54:10.510Z,5.90
2018-01-05T05:55:10.431Z,9.50
2018-01-05T05:56:10.356Z,8.40
2018-01-05T05:57:10.276Z,11.20
2018-01-05T05:58:10.199Z,6.80
2018-01-05T05:59:10.120Z,7.70
2018-01-05T06:00:10.043Z,8.60
2018-01-05T06:01:09.966Z,10.60
2018-01-05T06:02:09.888Z,9.90
2018-01-05T06:03:09.809Z,9.50
2018-01-05T06:04:09.732Z,7.30
2018-01-05T06:05:09.655Z,6.40
2018-01-05T06:06:09.577Z,11.80
2018-01-05T06:07:09.499Z,9.30
2018-01-05T06:08:09.421Z,8.30
2018-01-05T06:09:09.344Z,6.40
2018-01-05T06:10:09.267Z,13.80
2018-01-05T06:11:09.192Z,14.70
2018-01-05T06:12:09.113Z,9.90
2018-01-05T06:13:09.034Z,9.20
2018-01-05T06:14:08.957Z,10.80
2018-01-05T06:15:08.878Z,10.30
2018-01-05T06:16:08.801Z,6.40
2018-01-05T06:17:08.724Z,6.40
2018-01-05T06:18:08.646Z,7.40
2018-01-05T06:19:08.567Z,7.50
2018-01-05T06:20:08.491Z,8.00
2018-01-05T06:21:08.413Z,7.90
2018-01-05T06:22:08.337Z,9.70
2018-01-05T06:23:08.258Z,6.40
2018-01-05T06:24:08.180Z,8.40
2018-01-05T06:25:08.137Z,6.00
2018-01-05T06:26:08.025Z,10.20
2018-01-05T06:27:07.946Z,9.30
2018-01-05T06:28:07.869Z,6.10
2018-01-05T06:29:07.791Z,7.30
2018-01-05T06:30:07.715Z,6.90
2018-01-05T06:31:07.736Z,7.10
2018-01-05T06:32:07.559Z,7.30
2018-01-05T06:33:07.481Z,8.90
2018-01-05T06:34:07.404Z,10.10
2018-01-05T06:35:07.326Z,9.20
2018-01-05T06:36:07.249Z,9.60
2018-01-05T06:37:07.171Z,5.20
2018-01-05T06:38:07.093Z,8.90
2018-01-05T06:39:07.016Z,7.00
2018-01-05T06:40:06.939Z,7.30
2018-01-05T06:41:06.861Z,7.60
2018-01-05T06:42:06.783Z,9.00
2018-01-05T06:43:06.706Z,5.40
2018-01-05T06:44:06.629Z,6.50
2018-01-05T06:45:06.552Z,7.60
2018-01-05T06:46:06.475Z,6.00
2018-01-05T06:47:06.397Z,5.70
2018-01-05T06:48:06.319Z,8.30
2018-01-05T06:49:06.243Z,8.10
2018-01-05T06:50:06.165Z,7.20
2018-01-05T06:51:06.087Z,7.40
2018-01-05T06:52:06.010Z,8.80
2018-01-05T06:53:05.933Z,7.50
2018-01-05T06:54:05.855Z,8.20
2018-01-05T06:55:05.780Z,13.00
2018-01-05T06:56:05.700Z,9.10
2018-01-05T06:57:05.623Z,8.80
2018-01-05T06:58:05.546Z,10.30
2018-01-05T06:59:05.467Z,8.70
2018-01-05T07:00:05.391Z,9.70
2018-01-05T07:01:05.318Z,10.00
2018-01-05T07:02:05.236Z,5.50
2018-01-05T07:03:05.158Z,6.80
2018-01-05T07:04:05.081Z,8.50
2018-01-05T07:05:05.004Z,6.10
2018-01-05T07:06:04.927Z,10.10
2018-01-05T07:07:04.849Z,7.10
2018-01-05T07:08:04.772Z,6.80
2018-01-05T07:09:04.694Z,11.30
2018-01-05T07:10:04.618Z,7.10
2018-01-05T07:11:04.540Z,15.90
2018-01-05T07:12:04.462Z,8.10
2018-01-05T07:13:04.386Z,10.60
2018-01-05T07:14:04.309Z,12.00
2018-01-05T07:15:04.229Z,11.80
2018-01-05T07:16:04.154Z,7.60
2018-01-05T07:17:04.077Z,8.10
2018-01-05T07:18:04.001Z,6.60
2018-01-05T07:19:03.922Z,5.90
2018-01-05T07:20:03.846Z,8.10
2018-01-05T07:21:03.768Z,9.10
2018-01-05T07:22:03.691Z,6.40
2018-01-05T07:23:03.613Z,7.80
2018-01-05T07:24:03.535Z,7.40
2018-01-05T07:25:03.459Z,11.90
2018-01-05T07:26:03.382Z,7.70
2018-01-05T07:27:03.304Z,8.60
2018-01-05T07:28:03.267Z,5.20
2018-01-05T07:29:03.149Z,7.10
2018-01-05T07:30:03.073Z,7.10
2018-01-05T07:31:02.994Z,8.30
2018-01-05T07:32:02.917Z,5.20
2018-01-05T07:33:02.839Z,5.10
2018-01-05T07:34:02.763Z,8.80
2018-01-05T07:35:02.683Z,8.50
2018-01-05T07:36:02.607Z,5.70
2018-01-05T07:37:02.530Z,6.80
2018-01-05T07:38:02.453Z,9.60
2018-01-05T07:39:02.375Z,7.00
2018-01-05T07:40:02.298Z,6.00
2018-01-05T07:41:02.222Z,4.00
2018-01-05T07:42:02.143Z,8.10
2018-01-05T07:43:02.065Z,5.20
2018-01-05T07:44:01.993Z,7.70
2018-01-05T07:45:01.911Z,7.60
2018-01-05T07:46:01.833Z,6.60
2018-01-05T07:47:01.755Z,6.20
2018-01-05T07:48:01.829Z,6.90
2018-01-05T07:49:01.601Z,8.50
2018-01-05T07:50:01.525Z,7.00
2018-01-05T07:51:01.446Z,7.20
2018-01-05T07:52:01.370Z,6.30
2018-01-05T07:53:01.291Z,5.40
2018-01-05T07:54:01.214Z,5.70
2018-01-05T07:55:01.136Z,7.20
2018-01-05T07:56:01.060Z,7.40
2018-01-05T07:57:00.983Z,5.30
2018-01-05T07:58:00.905Z,3.80
2018-01-05T07:59:00.828Z,5.10
2018-01-05T08:00:00.752Z,6.70
2018-01-05T08:01:00.675Z,8.70
2018-01-05T08:02:00.598Z,7.50
2018-01-05T08:03:00.520Z,7.20
2018-01-05T08:04:00.442Z,6.40
2018-01-05T08:05:00.366Z,8.00
2018-01-05T08:06:00.289Z,8.50
2018-01-05T08:07:00.210Z,9.70
2018-01-05T08:08:00.134Z,5.00
2018-01-05T08:09:00.057Z,5.30
2018-01-05T08:09:59.980Z,5.90
2018-01-05T08:10:59.906Z,7.40
2018-01-05T08:11:59.824Z,7.80
2018-01-05T08:12:59.748Z,10.10
2018-01-05T08:13:59.671Z,8.20
2018-01-05T08:14:59.593Z,5.60
2018-01-05T08:15:59.517Z,6.60
2018-01-05T08:16:59.440Z,6.90
2018-01-05T08:17:59.363Z,5.60
2018-01-05T08:18:59.284Z,5.10
2018-01-05T08:19:59.209Z,5.40
2018-01-05T08:20:59.132Z,5.40
2018-01-05T08:21:59.055Z,4.70
2018-01-05T08:22:58.977Z,5.50
2018-01-05T08:23:58.901Z,9.90
2018-01-05T08:24:58.824Z,7.20
2018-01-05T08:25:58.747Z,6.50
2018-01-05T08:26:58.672Z,5.20
2018-01-05T08:27:58.592Z,8.40
2018-01-05T08:28:58.516Z,9.60
2018-01-05T08:29:58.438Z,8.40
2018-01-05T08:30:58.361Z,5.90
2018-01-05T08:31:58.284Z,6.60
2018-01-05T08:32:58.207Z,9.10
2018-01-05T08:33:58.130Z,6.90
2018-01-05T08:34:58.053Z,5.20
2018-01-05T08:35:57.976Z,7.80
2018-01-05T08:36:57.899Z,5.70
2018-01-05T08:37:57.822Z,5.50
2018-01-05T08:38:57.745Z,6.50
2018-01-05T08:39:57.674Z,5.20
2018-01-05T08:40:57.591Z,6.20
2018-01-05T08:41:57.514Z,5.30
2018-01-05T08:42:57.437Z,6.40
2018-01-05T08:43:57.361Z,5.20
2018-01-05T08:44:57.283Z,5.60
2018-01-05T08:45:57.206Z,7.80
2018-01-05T08:46:57.129Z,5.60
2018-01-05T08:47:57.052Z,6.70
2018-01-05T08:48:56.975Z,6.70
2018-01-05T08:49:56.898Z,3.50
2018-01-05T08:50:56.821Z,5.90
2018-01-05T08:51:56.745Z,6.90
2018-01-05T08:52:56.668Z,4.60
2018-01-05T08:53:56.626Z,4.70
2018-01-05T08:54:56.512Z,5.50
2018-01-05T08:55:56.436Z,4.50
2018-01-05T08:56:56.359Z,3.90
2018-01-05T08:57:56.283Z,10.50
2018-01-05T08:58:56.204Z,8.40
2018-01-05T08:59:56.153Z,6.20
2018-01-05T09:00:56.052Z,7.90
2018-01-05T09:01:55.976Z,7.20
2018-01-05T09:02:55.897Z,5.80
2018-01-05T09:03:55.820Z,4.90
2018-01-05T09:04:55.743Z,5.50
2018-01-05T09:05:55.966Z,8.00
2018-01-05T09:06:55.589Z,6.60
2018-01-05T09:07:55.512Z,7.80
2018-01-05T09:08:55.435Z,4.00
2018-01-05T09:09:55.363Z,3.90
2018-01-05T09:10:55.281Z,3.70
2018-01-05T09:11:55.204Z,7.90
2018-01-05T09:12:55.128Z,6.20
2018-01-05T09:13:55.050Z,7.60
2018-01-05T09:14:54.973Z,5.50
2018-01-05T09:15:54.896Z,4.80
2018-01-05T09:16:54.819Z,3.10
2018-01-05T09:17:54.741Z,5.40
2018-01-05T09:18:54.664Z,6.90
2018-01-05T09:19:54.587Z,5.70
2018-01-05T09:20:54.511Z,5.80
2018-01-05T09:21:54.434Z,5.80
2018-01-05T09:22:54.355Z,7.40
2018-01-05T09:23:54.279Z,4.90
2018-01-05T09:24:54.202Z,5.50
2018-01-05T09:25:54.126Z,5.20
2018-01-05T09:26:54.047Z,5.80
2018-01-05T09:27:53.971Z,8.00
2018-01-05T09:28:53.894Z,7.90
2018-01-05T09:29:53.821Z,9.10
2018-01-05T09:30:53.740Z,5.90
2018-01-05T09:31:53.663Z,9.00
2018-01-05T09:32:53.586Z,6.00
2018-01-05T09:33:53.514Z,5.20
2018-01-05T09:34:53.431Z,6.20
2018-01-05T09:35:53.356Z,7.40
2018-01-05T09:36:53.279Z,12.90
2018-01-05T09:37:53.203Z,7.60
2018-01-05T09:38:53.125Z,3.10
2018-01-05T09:39:53.048Z,5.40
2018-01-05T09:40:52.972Z,6.90
2018-01-05T09:41:52.896Z,6.60
2018-01-05T09:42:52.818Z,10.80
2018-01-05T09:43:52.741Z,5.20
2018-01-05T09:44:52.665Z,5.50
2018-01-05T09:45:52.589Z,6.20
2018-01-05T09:46:52.512Z,4.60
2018-01-05T09:47:52.435Z,9.40
2018-01-05T09:48:52.361Z,3.40
2018-01-05T09:49:52.282Z,6.10
2018-01-05T09:50:52.251Z,6.90
2018-01-05T09:51:52.129Z,6.20
2018-01-05T09:52:52.052Z,8.30
2018-01-05T09:53:51.976Z,4.10
2018-01-05T09:54:51.898Z,5.50
2018-01-05T09:55:51.822Z,5.00
2018-01-05T09:56:51.744Z,4.40
2018-01-05T09:57:51.668Z,7.00
2018-01-05T09:58:51.591Z,6.70
2018-01-05T09:59:51.515Z,7.60
2018-01-05T10:00:51.456Z,5.60
2018-01-05T10:01:51.362Z,4.90
2018-01-05T10:02:51.285Z,9.20
2018-01-05T10:03:51.208Z,4.90
2018-01-05T10:04:51.132Z,4.50
2018-01-05T10:05:51.056Z,4.70
2018-01-05T10:06:50.978Z,2.80
2018-01-05T10:07:50.903Z,4.50
2018-01-05T10:08:50.825Z,5.20
2018-01-05T10:09:50.751Z,2.70
2018-01-05T10:10:50.672Z,7.30
2018-01-05T10:11:50.596Z,4.90
2018-01-05T10:12:50.519Z,4.50
2018-01-05T10:13:50.443Z,5.80
2018-01-05T10:14:50.366Z,3.70
2018-01-05T10:15:50.290Z,3.90
2018-01-05T10:16:50.217Z,4.80
2018-01-05T10:17:50.138Z,4.00
2018-01-05T10:18:50.060Z,7.40
2018-01-05T10:19:49.984Z,3.10
2018-01-05T10:20:49.913Z,4.60
2018-01-05T10:21:49.832Z,4.10
2018-01-05T10:22:49.755Z,6.90
2018-01-05T10:23:49.679Z,5.30
2018-01-05T10:24:49.603Z,4.20
2018-01-05T10:25:49.527Z,4.30
2018-01-05T10:26:49.450Z,5.20
2018-01-05T10:27:49.373Z,3.00
2018-01-05T10:28:49.299Z,5.20
2018-01-05T10:29:49.222Z,3.20
2018-01-05T10:30:49.146Z,7.50
2018-01-05T10:31:49.070Z,2.80
2018-01-05T10:32:48.994Z,3.50
2018-01-05T10:33:48.920Z,4.80
2018-01-05T10:34:48.842Z,3.50
2018-01-05T10:35:48.771Z,3.70
2018-01-05T10:36:48.692Z,4.00
2018-01-05T10:37:48.616Z,6.10
2018-01-05T10:38:48.540Z,3.20
2018-01-05T10:39:48.464Z,4.10
2018-01-05T10:40:48.388Z,4.50
2018-01-05T10:41:48.312Z,6.80
2018-01-05T10:42:48.235Z,4.70
2018-01-05T10:43:48.160Z,5.20
2018-01-05T10:44:48.085Z,4.40
2018-01-05T10:45:48.009Z,7.00
2018-01-05T10:46:47.933Z,4.20
2018-01-05T10:47:47.888Z,3.90
2018-01-05T10:48:47.781Z,3.90
2018-01-05T10:49:47.706Z,6.40
2018-01-05T10:50:47.629Z,4.80
2018-01-05T10:51:47.554Z,5.50
2018-01-05T10:52:47.478Z,3.10
2018-01-05T10:53:47.403Z,4.30
2018-01-05T10:54:47.328Z,3.40
2018-01-05T10:55:47.251Z,2.40
2018-01-05T10:56:47.175Z,5.40
2018-01-05T10:57:47.100Z,4.80
2018-01-05T10:58:47.024Z,6.50
2018-01-05T10:59:46.948Z,5.00
2018-01-05T11:00:46.873Z,4.30
2018-01-05T11:01:46.797Z,4.10
2018-01-05T11:02:46.721Z,5.10
2018-01-05T11:03:46.645Z,3.10
2018-01-05T11:04:46.620Z,4.80
2018-01-05T11:05:46.496Z,5.70
2018-01-05T11:06:46.418Z,5.90
2018-01-05T11:07:46.346Z,4.10
2018-01-05T11:08:46.267Z,4.50
2018-01-05T11:09:46.192Z,5.50
2018-01-05T11:10:46.116Z,4.30
2018-01-05T11:11:46.041Z,4.80
2018-01-05T11:12:45.965Z,3.80
2018-01-05T11:13:45.893Z,5.10
2018-01-05T11:14:45.814Z,3.00
2018-01-05T11:15:45.738Z,6.70
2018-01-05T11:16:45.663Z,6.90
2018-01-05T11:17:45.587Z,2.90
2018-01-05T11:18:45.511Z,4.00
2018-01-05T11:19:45.436Z,8.00
2018-01-05T11:20:45.361Z,2.60
2018-01-05T11:21:45.288Z,4.40
2018-01-05T11:22:45.210Z,3.70
2018-01-05T11:23:45.133Z,5.20
2018-01-05T11:24:45.059Z,4.40
2018-01-05T11:25:44.983Z,3.80
2018-01-05T11:26:44.909Z,4.70
2018-01-05T11:27:44.833Z,2.70
2018-01-05T11:28:44.757Z,3.70
2018-01-05T11:29:44.683Z,2.80
2018-01-05T11:30:44.607Z,4.40
2018-01-05T11:31:44.534Z,4.00
2018-01-05T11:32:44.458Z,4.10
2018-01-05T11:33:44.383Z,5.00
2018-01-05T11:34:44.306Z,5.20
2018-01-05T11:35:44.231Z,4.60
2018-01-05T11:36:44.156Z,4.70
2018-01-05T11:37:44.081Z,4.60
2018-01-05T11:38:44.005Z,3.50
2018-01-05T11:39:43.932Z,3.80
2018-01-05T11:40:43.855Z,4.50
2018-01-05T11:41:43.780Z,3.60
2018-01-05T11:42:43.709Z,2.80
2018-01-05T11:43:43.629Z,3.90
2018-01-05T11:44:43.555Z,2.50
2018-01-05T11:45:43.481Z,2.90
2018-01-05T11:46:43.404Z,4.70
2018-01-05T11:47:43.328Z,3.80
2018-01-05T11:48:43.254Z,2.10
2018-01-05T11:49:43.178Z,4.50
2018-01-05T11:50:43.102Z,5.90
2018-01-05T11:51:43.027Z,5.20
2018-01-05T11:52:42.952Z,3.60
2018-01-05T11:53:42.877Z,4.70
2018-01-05T11:54:42.801Z,3.80
2018-01-05T11:55:42.732Z,3.30
2018-01-05T11:56:42.651Z,4.40
2018-01-05T11:57:42.576Z,2.60
2018-01-05T11:58:42.501Z,2.90
2018-01-05T11:59:42.425Z,4.70
2018-01-05T12:00:42.350Z,3.70
2018-01-05T12:01:42.275Z,2.80
2018-01-05T12:02:42.199Z,3.60
2018-01-05T12:03:42.124Z,1.60
2018-01-05T12:04:42.048Z,3.90
2018-01-05T12:05:41.975Z,3.90
2018-01-05T12:06:41.897Z,3.70
2018-01-05T12:07:41.822Z,3.80
2018-01-05T12:08:41.747Z,5.80
2018-01-05T12:09:41.672Z,3.80
2018-01-05T12:10:41.595Z,5.70
2018-01-05T12:11:41.519Z,5.10
2018-01-05T12:12:41.444Z,3.90
2018-01-05T12:13:41.369Z,3.80
2018-01-05T12:14:41.293Z,4.20
2018-01-05T12:15:41.218Z,3.00
2018-01-05T12:16:41.142Z,4.20
2018-01-05T12:17:41.067Z,5.20
2018-01-05T12:18:40.996Z,2.60
2018-01-05T12:19:40.915Z,3.90
2018-01-05T12:20:40.840Z,4.50
2018-01-05T12:21:40.765Z,3.80
2018-01-05T12:22:40.688Z,5.90
2018-01-05T12:23:40.613Z,1.30
2018-01-05T12:24:40.538Z,3.60
2018-01-05T12:25:40.470Z,4.00
2018-01-05T12:26:40.387Z,3.80
2018-01-05T12:27:40.310Z,3.40
2018-01-05T12:28:40.237Z,2.50
2018-01-05T12:29:40.160Z,4.20
2018-01-05T12:30:40.083Z,2.10
2018-01-05T12:31:40.010Z,1.80
2018-01-05T12:32:39.933Z,4.60
2018-01-05T12:33:39.859Z,6.20
2018-01-05T12:34:39.781Z,2.60
2018-01-05T12:35:39.707Z,4.10
2018-01-05T12:36:39.631Z,3.80
2018-01-05T12:37:39.555Z,2.40
2018-01-05T12:38:39.479Z,5.00
2018-01-05T12:39:39.404Z,3.10
2018-01-05T12:40:39.328Z,1.30
2018-01-05T12:41:39.253Z,4.40
2018-01-05T12:42:39.176Z,3.40
2018-01-05T12:43:39.101Z,3.90
2018-01-05T12:44:39.027Z,1.70
2018-01-05T12:45:38.950Z,3.70
2018-01-05T12:46:38.877Z,2.20
2018-01-05T12:47:38.799Z,2.30
2018-01-05T12:48:38.723Z,6.10
2018-01-05T12:49:38.648Z,3.70
2018-01-05T12:50:38.578Z,3.50
2018-01-05T12:51:38.495Z,3.20
2018-01-05T12:52:38.420Z,4.60
2018-01-05T12:53:38.345Z,4.70
2018-01-05T12:54:38.267Z,2.50
2018-01-05T12:55:38.192Z,4.70
2018-01-05T12:56:38.116Z,2.80
2018-01-05T12:57:38.041Z,4.20
2018-01-05T12:58:37.964Z,4.20
2018-01-05T12:59:37.889Z,3.80
2018-01-05T13:00:37.813Z,3.00
2018-01-05T13:01:37.738Z,2.00
2018-01-05T13:02:37.661Z,4.60
2018-01-05T13:03:37.586Z,3.70
2018-01-05T13:04:37.511Z,2.70
2018-01-05T13:05:37.435Z,2.20
2018-01-05T13:06:37.363Z,2.50